sensor_id;sensor_type;location;lat;lon;timestamp;temperature;humidity
9951;DHT22;24074;49.254;6.702;2024-01-25T00:01:12;9.20;99.90
9951;DHT22;24074;49.254;6.702;2024-01-25T00:03:37;9.20;99.90
9951;DHT22;24074;49.254;6.702;2024-01-25T00:06:04;9.20;99.90
9951;DHT22;24074;49.254;6.702;2024-01-25T00:08:30;9.20;99.90
9951;DHT22;24074;49.254;6.702;2024-01-25T00:10:55;9.30;99.90
9951;DHT22;24074;49.254;6.702;2024-01-25T00:13:21;9.20;99.90
9951;DHT22;24074;49.254;6.702;2024-01-25T00:15:49;9.30;99.90
9951;DHT22;24074;49.254;6.702;2024-01-25T00:18:15;9.20;99.90
9951;DHT22;24074;49.254;6.702;2024-01-25T00:20:40;9.30;99.90
9951;DHT22;24074;49.254;6.702;2024-01-25T00:23:06;9.30;99.90
9951;DHT22;24074;49.254;6.702;2024-01-25T00:25:32;9.30;99.90
9951;DHT22;24074;49.254;6.702;2024-01-25T00:27:57;9.30;99.90
9951;DHT22;24074;49.254;6.702;2024-01-25T00:30:23;9.20;99.90
9951;DHT22;24074;49.254;6.702;2024-01-25T00:32:48;9.20;99.90
9951;DHT22;24074;49.254;6.702;2024-01-25T00:35:15;9.10;99.90
9951;DHT22;24074;49.254;6.702;2024-01-25T00:37:41;9.10;99.90
9951;DHT22;24074;49.254;6.702;2024-01-25T00:40:07;9.10;99.90
9951;DHT22;24074;49.254;6.702;2024-01-25T00:42:40;9.10;99.90
9951;DHT22;24074;49.254;6.702;2024-01-25T00:45:07;9.00;99.90
9951;DHT22;24074;49.254;6.702;2024-01-25T00:47:33;9.00;99.90
9951;DHT22;24074;49.254;6.702;2024-01-25T00:49:59;9.00;99.90
9951;DHT22;24074;49.254;6.702;2024-01-25T00:52:25;9.10;99.90
9951;DHT22;24074;49.254;6.702;2024-01-25T00:54:51;9.00;99.90
9951;DHT22;24074;49.254;6.702;2024-01-25T00:57:17;9.00;99.90
9951;DHT22;24074;49.254;6.702;2024-01-25T00:59:43;9.00;99.90
9951;DHT22;24074;49.254;6.702;2024-01-25T01:02:14;9.00;99.90
9951;DHT22;24074;49.254;6.702;2024-01-25T01:04:40;9.00;99.90
9951;DHT22;24074;49.254;6.702;2024-01-25T01:07:06;9.00;99.90
9951;DHT22;24074;49.254;6.702;2024-01-25T01:09:32;9.20;99.90
9951;DHT22;24074;49.254;6.702;2024-01-25T01:11:58;8.90;99.90
9951;DHT22;24074;49.254;6.702;2024-01-25T01:14:24;8.80;99.90
9951;DHT22;24074;49.254;6.702;2024-01-25T01:16:50;8.80;99.90
9951;DHT22;24074;49.254;6.702;2024-01-25T01:19:16;8.80;99.90
9951;DHT22;24074;49.254;6.702;2024-01-25T01:21:42;8.80;99.90
9951;DHT22;24074;49.254;6.702;2024-01-25T01:24:09;8.80;99.90
9951;DHT22;24074;49.254;6.702;2024-01-25T01:26:36;8.70;99.90
9951;DHT22;24074;49.254;6.702;2024-01-25T01:29:01;8.60;99.90
9951;DHT22;24074;49.254;6.702;2024-01-25T01:31:27;8.50;99.90
9951;DHT22;24074;49.254;6.702;2024-01-25T01:33:52;8.40;99.90
9951;DHT22;24074;49.254;6.702;2024-01-25T01:36:19;8.30;99.90
9951;DHT22;24074;49.254;6.702;2024-01-25T01:38:44;8.30;99.90
9951;DHT22;24074;49.254;6.702;2024-01-25T01:41:10;8.20;99.90
9951;DHT22;24074;49.254;6.702;2024-01-25T01:43:39;8.10;99.90
9951;DHT22;24074;49.254;6.702;2024-01-25T01:46:10;8.10;99.90
9951;DHT22;24074;49.254;6.702;2024-01-25T01:48:39;8.10;99.90
9951;DHT22;24074;49.254;6.702;2024-01-25T01:51:04;8.10;99.90
9951;DHT22;24074;49.254;6.702;2024-01-25T01:53:32;8.20;99.90
9951;DHT22;24074;49.254;6.702;2024-01-25T01:55:58;8.20;99.90
9951;DHT22;24074;49.254;6.702;2024-01-25T01:58:24;8.20;99.90
9951;DHT22;24074;49.254;6.702;2024-01-25T02:00:51;8.20;99.90
9951;DHT22;24074;49.254;6.702;2024-01-25T02:03:17;8.20;99.90
9951;DHT22;24074;49.254;6.702;2024-01-25T02:05:43;8.20;99.90
9951;DHT22;24074;49.254;6.702;2024-01-25T02:08:09;8.20;99.90
9951;DHT22;24074;49.254;6.702;2024-01-25T02:10:34;8.20;99.90
9951;DHT22;24074;49.254;6.702;2024-01-25T02:13:00;8.20;99.90
9951;DHT22;24074;49.254;6.702;2024-01-25T02:15:25;8.30;99.90
9951;DHT22;24074;49.254;6.702;2024-01-25T02:17:51;8.30;99.90
9951;DHT22;24074;49.254;6.702;2024-01-25T02:20:18;8.40;99.90
9951;DHT22;24074;49.254;6.702;2024-01-25T02:22:44;8.40;99.90
9951;DHT22;24074;49.254;6.702;2024-01-25T02:25:09;8.40;99.90
9951;DHT22;24074;49.254;6.702;2024-01-25T02:27:35;8.40;99.90
9951;DHT22;24074;49.254;6.702;2024-01-25T02:30:07;8.40;99.90
9951;DHT22;24074;49.254;6.702;2024-01-25T02:32:33;8.40;99.90
9951;DHT22;24074;49.254;6.702;2024-01-25T02:34:59;8.30;99.90
9951;DHT22;24074;49.254;6.702;2024-01-25T02:37:25;8.40;99.90
9951;DHT22;24074;49.254;6.702;2024-01-25T02:39:51;8.50;99.90
9951;DHT22;24074;49.254;6.702;2024-01-25T02:42:17;8.40;99.90
9951;DHT22;24074;49.254;6.702;2024-01-25T02:44:43;8.30;99.90
9951;DHT22;24074;49.254;6.702;2024-01-25T02:47:09;8.30;99.90
9951;DHT22;24074;49.254;6.702;2024-01-25T02:49:38;8.20;99.90
9951;DHT22;24074;49.254;6.702;2024-01-25T02:52:07;8.20;99.90
9951;DHT22;24074;49.254;6.702;2024-01-25T02:54:34;8.20;99.90
9951;DHT22;24074;49.254;6.702;2024-01-25T02:57:02;8.10;99.90
9951;DHT22;24074;49.254;6.702;2024-01-25T02:59:27;8.10;99.90
9951;DHT22;24074;49.254;6.702;2024-01-25T03:01:54;8.10;99.90
9951;DHT22;24074;49.254;6.702;2024-01-25T03:04:19;8.00;99.90
9951;DHT22;24074;49.254;6.702;2024-01-25T03:06:45;8.10;99.90
9951;DHT22;24074;49.254;6.702;2024-01-25T03:09:11;8.10;99.90
9951;DHT22;24074;49.254;6.702;2024-01-25T03:11:36;8.20;99.90
9951;DHT22;24074;49.254;6.702;2024-01-25T03:14:02;8.20;99.90
9951;DHT22;24074;49.254;6.702;2024-01-25T03:16:27;8.20;99.90
9951;DHT22;24074;49.254;6.702;2024-01-25T03:18:53;8.20;99.90
9951;DHT22;24074;49.254;6.702;2024-01-25T03:21:18;8.20;99.90
9951;DHT22;24074;49.254;6.702;2024-01-25T03:23:44;8.30;99.90
9951;DHT22;24074;49.254;6.702;2024-01-25T03:26:10;8.30;99.90
9951;DHT22;24074;49.254;6.702;2024-01-25T03:28:35;8.30;99.90
9951;DHT22;24074;49.254;6.702;2024-01-25T03:31:04;8.40;99.90
9951;DHT22;24074;49.254;6.702;2024-01-25T03:33:30;8.40;99.90
9951;DHT22;24074;49.254;6.702;2024-01-25T03:36:01;8.40;99.90
9951;DHT22;24074;49.254;6.702;2024-01-25T03:38:28;8.40;99.90
9951;DHT22;24074;49.254;6.702;2024-01-25T03:40:53;8.40;99.90
9951;DHT22;24074;49.254;6.702;2024-01-25T03:43:19;8.30;99.90
9951;DHT22;24074;49.254;6.702;2024-01-25T03:45:45;8.30;99.90
9951;DHT22;24074;49.254;6.702;2024-01-25T03:48:10;8.20;99.90
9951;DHT22;24074;49.254;6.702;2024-01-25T03:50:36;8.10;99.90
9951;DHT22;24074;49.254;6.702;2024-01-25T03:53:01;8.00;99.90
9951;DHT22;24074;49.254;6.702;2024-01-25T03:55:27;7.90;99.90
9951;DHT22;24074;49.254;6.702;2024-01-25T03:57:52;7.90;99.90
9951;DHT22;24074;49.254;6.702;2024-01-25T04:00:18;7.90;99.90
9951;DHT22;24074;49.254;6.702;2024-01-25T04:02:44;7.90;99.90
9951;DHT22;24074;49.254;6.702;2024-01-25T04:05:09;7.70;99.90
9951;DHT22;24074;49.254;6.702;2024-01-25T04:07:35;7.70;99.90
9951;DHT22;24074;49.254;6.702;2024-01-25T04:10:01;7.60;99.90
9951;DHT22;24074;49.254;6.702;2024-01-25T04:12:27;7.60;99.90
9951;DHT22;24074;49.254;6.702;2024-01-25T04:14:52;7.60;99.90
9951;DHT22;24074;49.254;6.702;2024-01-25T04:17:18;7.60;99.90
9951;DHT22;24074;49.254;6.702;2024-01-25T04:19:43;7.60;99.90
9951;DHT22;24074;49.254;6.702;2024-01-25T04:22:09;7.60;99.90
9951;DHT22;24074;49.254;6.702;2024-01-25T04:24:34;7.60;99.90
9951;DHT22;24074;49.254;6.702;2024-01-25T04:27:00;7.50;99.90
9951;DHT22;24074;49.254;6.702;2024-01-25T04:29:25;7.50;99.90
9951;DHT22;24074;49.254;6.702;2024-01-25T04:31:51;7.50;99.90
9951;DHT22;24074;49.254;6.702;2024-01-25T04:34:17;7.50;99.90
9951;DHT22;24074;49.254;6.702;2024-01-25T04:36:42;7.60;99.90
9951;DHT22;24074;49.254;6.702;2024-01-25T04:39:08;7.60;99.90
9951;DHT22;24074;49.254;6.702;2024-01-25T04:41:33;7.60;99.90
9951;DHT22;24074;49.254;6.702;2024-01-25T04:43:59;7.60;99.90
9951;DHT22;24074;49.254;6.702;2024-01-25T04:46:25;7.40;99.90
9951;DHT22;24074;49.254;6.702;2024-01-25T04:48:50;7.30;99.90
9951;DHT22;24074;49.254;6.702;2024-01-25T04:51:17;7.10;99.90
9951;DHT22;24074;49.254;6.702;2024-01-25T04:53:46;6.90;99.90
9951;DHT22;24074;49.254;6.702;2024-01-25T04:56:11;6.80;99.90
9951;DHT22;24074;49.254;6.702;2024-01-25T04:58:37;6.70;99.90
9951;DHT22;24074;49.254;6.702;2024-01-25T05:01:03;6.60;99.90
9951;DHT22;24074;49.254;6.702;2024-01-25T05:03:29;6.50;99.90
9951;DHT22;24074;49.254;6.702;2024-01-25T05:05:54;6.30;99.90
9951;DHT22;24074;49.254;6.702;2024-01-25T05:08:20;6.20;99.90
9951;DHT22;24074;49.254;6.702;2024-01-25T05:10:45;6.00;99.90
9951;DHT22;24074;49.254;6.702;2024-01-25T05:13:12;5.90;99.90
9951;DHT22;24074;49.254;6.702;2024-01-25T05:15:37;5.90;99.90
9951;DHT22;24074;49.254;6.702;2024-01-25T05:18:03;5.90;99.90
9951;DHT22;24074;49.254;6.702;2024-01-25T05:20:29;5.80;99.90
9951;DHT22;24074;49.254;6.702;2024-01-25T05:22:59;5.70;99.90
9951;DHT22;24074;49.254;6.702;2024-01-25T05:25:25;5.70;99.90
9951;DHT22;24074;49.254;6.702;2024-01-25T05:27:51;5.80;99.90
9951;DHT22;24074;49.254;6.702;2024-01-25T05:30:18;5.80;99.90
9951;DHT22;24074;49.254;6.702;2024-01-25T05:32:43;5.90;99.90
9951;DHT22;24074;49.254;6.702;2024-01-25T05:35:09;5.70;99.90
9951;DHT22;24074;49.254;6.702;2024-01-25T05:37:35;5.80;99.90
9951;DHT22;24074;49.254;6.702;2024-01-25T05:40:00;5.90;99.90
9951;DHT22;24074;49.254;6.702;2024-01-25T05:42:26;5.90;99.90
9951;DHT22;24074;49.254;6.702;2024-01-25T05:44:51;6.00;99.90
9951;DHT22;24074;49.254;6.702;2024-01-25T05:47:20;6.00;99.90
9951;DHT22;24074;49.254;6.702;2024-01-25T05:49:46;5.80;99.90
9951;DHT22;24074;49.254;6.702;2024-01-25T05:52:12;5.60;99.90
9951;DHT22;24074;49.254;6.702;2024-01-25T05:54:37;5.70;99.90
9951;DHT22;24074;49.254;6.702;2024-01-25T05:57:03;5.50;99.90
9951;DHT22;24074;49.254;6.702;2024-01-25T05:59:29;5.40;99.90
9951;DHT22;24074;49.254;6.702;2024-01-25T06:01:55;5.30;99.90
9951;DHT22;24074;49.254;6.702;2024-01-25T06:04:21;5.10;99.90
9951;DHT22;24074;49.254;6.702;2024-01-25T06:06:47;5.10;99.90
9951;DHT22;24074;49.254;6.702;2024-01-25T06:09:12;5.00;99.90
9951;DHT22;24074;49.254;6.702;2024-01-25T06:11:40;5.00;99.90
9951;DHT22;24074;49.254;6.702;2024-01-25T06:14:05;5.00;99.90
9951;DHT22;24074;49.254;6.702;2024-01-25T06:16:31;5.10;99.90
9951;DHT22;24074;49.254;6.702;2024-01-25T06:18:57;5.20;99.90
9951;DHT22;24074;49.254;6.702;2024-01-25T06:21:26;5.10;99.90
9951;DHT22;24074;49.254;6.702;2024-01-25T06:23:52;4.90;99.90
9951;DHT22;24074;49.254;6.702;2024-01-25T06:26:17;4.80;99.90
9951;DHT22;24074;49.254;6.702;2024-01-25T06:28:43;4.80;99.90
9951;DHT22;24074;49.254;6.702;2024-01-25T06:31:08;4.70;99.90
9951;DHT22;24074;49.254;6.702;2024-01-25T06:33:34;4.70;99.90
9951;DHT22;24074;49.254;6.702;2024-01-25T06:36:00;4.60;99.90
9951;DHT22;24074;49.254;6.702;2024-01-25T06:38:31;4.50;99.90
9951;DHT22;24074;49.254;6.702;2024-01-25T06:40:56;4.50;99.90
9951;DHT22;24074;49.254;6.702;2024-01-25T06:43:22;4.40;99.90
9951;DHT22;24074;49.254;6.702;2024-01-25T06:45:47;4.50;99.90
9951;DHT22;24074;49.254;6.702;2024-01-25T06:48:13;4.40;99.90
9951;DHT22;24074;49.254;6.702;2024-01-25T06:50:38;4.30;99.90
9951;DHT22;24074;49.254;6.702;2024-01-25T06:53:04;4.20;99.90
9951;DHT22;24074;49.254;6.702;2024-01-25T06:55:29;4.10;99.90
9951;DHT22;24074;49.254;6.702;2024-01-25T06:57:55;4.00;99.90
9951;DHT22;24074;49.254;6.702;2024-01-25T07:00:21;4.00;99.90
9951;DHT22;24074;49.254;6.702;2024-01-25T07:02:47;3.90;99.90
9951;DHT22;24074;49.254;6.702;2024-01-25T07:05:13;3.90;99.90
9951;DHT22;24074;49.254;6.702;2024-01-25T07:07:39;3.80;99.90
9951;DHT22;24074;49.254;6.702;2024-01-25T07:10:06;3.90;99.90
9951;DHT22;24074;49.254;6.702;2024-01-25T07:12:32;4.00;99.90
9951;DHT22;24074;49.254;6.702;2024-01-25T07:14:57;4.00;99.90
9951;DHT22;24074;49.254;6.702;2024-01-25T07:17:23;4.20;99.90
9951;DHT22;24074;49.254;6.702;2024-01-25T07:19:48;4.20;99.90
9951;DHT22;24074;49.254;6.702;2024-01-25T07:22:14;4.40;99.90
9951;DHT22;24074;49.254;6.702;2024-01-25T07:24:40;4.40;99.90
9951;DHT22;24074;49.254;6.702;2024-01-25T07:27:09;4.40;99.90
9951;DHT22;24074;49.254;6.702;2024-01-25T07:29:36;4.50;99.90
9951;DHT22;24074;49.254;6.702;2024-01-25T07:32:02;4.60;99.90
9951;DHT22;24074;49.254;6.702;2024-01-25T07:34:28;4.70;99.90
9951;DHT22;24074;49.254;6.702;2024-01-25T07:36:54;4.80;99.90
9951;DHT22;24074;49.254;6.702;2024-01-25T07:39:19;4.90;99.90
9951;DHT22;24074;49.254;6.702;2024-01-25T07:41:45;5.00;99.90
9951;DHT22;24074;49.254;6.702;2024-01-25T07:44:11;5.20;99.90
9951;DHT22;24074;49.254;6.702;2024-01-25T07:46:36;5.40;99.90
9951;DHT22;24074;49.254;6.702;2024-01-25T07:49:02;5.50;99.90
9951;DHT22;24074;49.254;6.702;2024-01-25T07:51:27;5.70;99.90
9951;DHT22;24074;49.254;6.702;2024-01-25T07:53:54;5.90;99.90
9951;DHT22;24074;49.254;6.702;2024-01-25T07:56:20;6.00;99.90
9951;DHT22;24074;49.254;6.702;2024-01-25T07:58:48;6.00;99.90
9951;DHT22;24074;49.254;6.702;2024-01-25T08:01:17;6.10;99.90
9951;DHT22;24074;49.254;6.702;2024-01-25T08:03:45;6.20;99.90
9951;DHT22;24074;49.254;6.702;2024-01-25T08:06:11;6.20;99.90
9951;DHT22;24074;49.254;6.702;2024-01-25T08:08:37;6.20;99.90
9951;DHT22;24074;49.254;6.702;2024-01-25T08:11:03;6.00;99.90
9951;DHT22;24074;49.254;6.702;2024-01-25T08:13:29;6.00;99.90
9951;DHT22;24074;49.254;6.702;2024-01-25T08:15:56;6.20;99.90
9951;DHT22;24074;49.254;6.702;2024-01-25T08:18:21;6.90;99.90
9951;DHT22;24074;49.254;6.702;2024-01-25T08:20:50;7.60;99.90
9951;DHT22;24074;49.254;6.702;2024-01-25T08:23:16;8.10;99.90
9951;DHT22;24074;49.254;6.702;2024-01-25T08:25:42;8.60;99.90
9951;DHT22;24074;49.254;6.702;2024-01-25T08:28:07;9.30;99.90
9951;DHT22;24074;49.254;6.702;2024-01-25T08:30:33;10.60;99.90
9951;DHT22;24074;49.254;6.702;2024-01-25T08:32:59;12.00;99.90
9951;DHT22;24074;49.254;6.702;2024-01-25T08:35:25;13.00;99.90
9951;DHT22;24074;49.254;6.702;2024-01-25T08:37:50;13.90;99.90
9951;DHT22;24074;49.254;6.702;2024-01-25T08:40:16;14.80;99.90
9951;DHT22;24074;49.254;6.702;2024-01-25T08:42:42;14.20;99.90
9951;DHT22;24074;49.254;6.702;2024-01-25T08:45:08;12.90;99.90
9951;DHT22;24074;49.254;6.702;2024-01-25T08:47:37;11.30;99.90
9951;DHT22;24074;49.254;6.702;2024-01-25T08:50:04;10.50;99.90
9951;DHT22;24074;49.254;6.702;2024-01-25T08:52:31;10.40;99.90
9951;DHT22;24074;49.254;6.702;2024-01-25T08:54:57;10.60;99.90
9951;DHT22;24074;49.254;6.702;2024-01-25T08:57:23;11.70;99.90
9951;DHT22;24074;49.254;6.702;2024-01-25T08:59:48;13.80;99.90
9951;DHT22;24074;49.254;6.702;2024-01-25T09:02:17;15.20;99.90
9951;DHT22;24074;49.254;6.702;2024-01-25T09:04:47;15.00;99.90
9951;DHT22;24074;49.254;6.702;2024-01-25T09:07:12;13.70;99.90
9951;DHT22;24074;49.254;6.702;2024-01-25T09:09:38;12.40;99.90
9951;DHT22;24074;49.254;6.702;2024-01-25T09:12:03;11.30;99.90
9951;DHT22;24074;49.254;6.702;2024-01-25T09:14:33;11.50;99.90
9951;DHT22;24074;49.254;6.702;2024-01-25T09:16:59;11.90;99.90
9951;DHT22;24074;49.254;6.702;2024-01-25T09:19:24;13.00;99.90
9951;DHT22;24074;49.254;6.702;2024-01-25T09:21:50;13.60;99.90
9951;DHT22;24074;49.254;6.702;2024-01-25T09:24:15;13.80;99.90
9951;DHT22;24074;49.254;6.702;2024-01-25T09:26:41;14.60;99.90
9951;DHT22;24074;49.254;6.702;2024-01-25T09:29:06;15.80;99.90
9951;DHT22;24074;49.254;6.702;2024-01-25T09:31:32;16.10;99.90
9951;DHT22;24074;49.254;6.702;2024-01-25T09:33:58;16.10;99.90
9951;DHT22;24074;49.254;6.702;2024-01-25T09:36:23;15.40;99.90
9951;DHT22;24074;49.254;6.702;2024-01-25T09:38:49;13.80;99.90
9951;DHT22;24074;49.254;6.702;2024-01-25T09:41:14;13.00;99.90
9951;DHT22;24074;49.254;6.702;2024-01-25T09:43:40;12.60;99.90
9951;DHT22;24074;49.254;6.702;2024-01-25T09:46:07;12.10;99.90
9951;DHT22;24074;49.254;6.702;2024-01-25T09:48:32;11.90;99.90
9951;DHT22;24074;49.254;6.702;2024-01-25T09:50:59;11.80;99.90
9951;DHT22;24074;49.254;6.702;2024-01-25T09:53:24;11.80;99.90
9951;DHT22;24074;49.254;6.702;2024-01-25T09:56:04;11.40;99.90
9951;DHT22;24074;49.254;6.702;2024-01-25T09:58:37;11.40;99.90
9951;DHT22;24074;49.254;6.702;2024-01-25T10:01:04;11.40;99.90
9951;DHT22;24074;49.254;6.702;2024-01-25T10:03:30;11.50;99.90
9951;DHT22;24074;49.254;6.702;2024-01-25T10:05:56;12.40;99.90
9951;DHT22;24074;49.254;6.702;2024-01-25T10:08:24;13.40;99.90
9951;DHT22;24074;49.254;6.702;2024-01-25T10:10:50;14.20;99.90
9951;DHT22;24074;49.254;6.702;2024-01-25T10:13:19;14.70;99.90
9951;DHT22;24074;49.254;6.702;2024-01-25T10:15:44;14.70;99.90
9951;DHT22;24074;49.254;6.702;2024-01-25T10:18:15;14.60;99.90
9951;DHT22;24074;49.254;6.702;2024-01-25T10:20:42;14.30;99.90
9951;DHT22;24074;49.254;6.702;2024-01-25T10:23:08;13.90;99.90
9951;DHT22;24074;49.254;6.702;2024-01-25T10:25:37;13.20;99.90
9951;DHT22;24074;49.254;6.702;2024-01-25T10:28:04;12.90;99.90
9951;DHT22;24074;49.254;6.702;2024-01-25T10:30:32;12.70;99.90
9951;DHT22;24074;49.254;6.702;2024-01-25T10:32:59;12.50;99.90
9951;DHT22;24074;49.254;6.702;2024-01-25T10:35:26;12.30;99.90
9951;DHT22;24074;49.254;6.702;2024-01-25T10:37:52;12.20;99.90
9951;DHT22;24074;49.254;6.702;2024-01-25T10:40:19;12.40;99.90
9951;DHT22;24074;49.254;6.702;2024-01-25T10:42:45;12.50;99.90
9951;DHT22;24074;49.254;6.702;2024-01-25T10:45:10;12.70;99.90
9951;DHT22;24074;49.254;6.702;2024-01-25T10:47:37;12.80;99.90
9951;DHT22;24074;49.254;6.702;2024-01-25T10:50:03;13.00;99.90
9951;DHT22;24074;49.254;6.702;2024-01-25T10:52:31;12.90;99.90
9951;DHT22;24074;49.254;6.702;2024-01-25T10:54:57;12.70;99.90
9951;DHT22;24074;49.254;6.702;2024-01-25T10:57:23;12.40;99.90
9951;DHT22;24074;49.254;6.702;2024-01-25T10:59:49;12.20;99.90
9951;DHT22;24074;49.254;6.702;2024-01-25T11:02:18;11.90;99.90
9951;DHT22;24074;49.254;6.702;2024-01-25T11:04:53;11.80;99.90
9951;DHT22;24074;49.254;6.702;2024-01-25T11:07:20;11.70;99.90
9951;DHT22;24074;49.254;6.702;2024-01-25T11:09:50;11.60;99.90
9951;DHT22;24074;49.254;6.702;2024-01-25T11:12:18;11.60;99.90
9951;DHT22;24074;49.254;6.702;2024-01-25T11:14:44;11.60;99.90
9951;DHT22;24074;49.254;6.702;2024-01-25T11:17:20;11.40;99.90
9951;DHT22;24074;49.254;6.702;2024-01-25T11:19:48;11.30;99.90
9951;DHT22;24074;49.254;6.702;2024-01-25T11:22:14;11.20;99.90
9951;DHT22;24074;49.254;6.702;2024-01-25T11:24:43;11.10;99.90
9951;DHT22;24074;49.254;6.702;2024-01-25T11:27:11;11.10;99.90
9951;DHT22;24074;49.254;6.702;2024-01-25T11:29:38;11.00;99.90
9951;DHT22;24074;49.254;6.702;2024-01-25T11:32:04;10.90;99.90
9951;DHT22;24074;49.254;6.702;2024-01-25T11:34:30;10.90;99.90
9951;DHT22;24074;49.254;6.702;2024-01-25T11:36:57;10.70;99.90
9951;DHT22;24074;49.254;6.702;2024-01-25T11:39:23;10.70;99.90
9951;DHT22;24074;49.254;6.702;2024-01-25T11:41:51;10.60;99.90
9951;DHT22;24074;49.254;6.702;2024-01-25T11:44:17;10.50;99.90
9951;DHT22;24074;49.254;6.702;2024-01-25T11:46:43;10.40;99.90
9951;DHT22;24074;49.254;6.702;2024-01-25T11:49:09;10.40;99.90
9951;DHT22;24074;49.254;6.702;2024-01-25T11:51:34;10.30;99.90
9951;DHT22;24074;49.254;6.702;2024-01-25T11:54:00;10.40;99.90
9951;DHT22;24074;49.254;6.702;2024-01-25T11:56:31;10.50;99.90
9951;DHT22;24074;49.254;6.702;2024-01-25T11:58:58;10.60;99.90
9951;DHT22;24074;49.254;6.702;2024-01-25T12:01:27;10.60;99.90
9951;DHT22;24074;49.254;6.702;2024-01-25T12:03:54;10.80;99.90
9951;DHT22;24074;49.254;6.702;2024-01-25T12:06:19;10.70;99.90
9951;DHT22;24074;49.254;6.702;2024-01-25T12:08:45;10.60;99.90
9951;DHT22;24074;49.254;6.702;2024-01-25T12:11:17;10.60;99.90
9951;DHT22;24074;49.254;6.702;2024-01-25T12:13:44;10.70;99.90
9951;DHT22;24074;49.254;6.702;2024-01-25T12:16:10;10.70;99.90
9951;DHT22;24074;49.254;6.702;2024-01-25T12:18:43;10.70;99.90
9951;DHT22;24074;49.254;6.702;2024-01-25T12:21:09;10.80;99.90
9951;DHT22;24074;49.254;6.702;2024-01-25T12:23:37;10.90;99.90
9951;DHT22;24074;49.254;6.702;2024-01-25T12:26:09;10.90;99.90
9951;DHT22;24074;49.254;6.702;2024-01-25T12:28:38;10.80;99.90
9951;DHT22;24074;49.254;6.702;2024-01-25T12:31:06;10.80;99.90
9951;DHT22;24074;49.254;6.702;2024-01-25T12:33:33;10.70;99.90
9951;DHT22;24074;49.254;6.702;2024-01-25T12:36:00;10.70;99.90
9951;DHT22;24074;49.254;6.702;2024-01-25T12:38:26;10.80;99.90
9951;DHT22;24074;49.254;6.702;2024-01-25T12:40:53;10.80;99.90
9951;DHT22;24074;49.254;6.702;2024-01-25T12:43:20;10.70;99.90
9951;DHT22;24074;49.254;6.702;2024-01-25T12:45:49;10.70;99.90
9951;DHT22;24074;49.254;6.702;2024-01-25T12:48:15;10.50;99.90
9951;DHT22;24074;49.254;6.702;2024-01-25T12:50:41;10.50;99.90
9951;DHT22;24074;49.254;6.702;2024-01-25T12:53:07;10.60;99.90
9951;DHT22;24074;49.254;6.702;2024-01-25T12:55:33;10.40;99.90
9951;DHT22;24074;49.254;6.702;2024-01-25T12:58:08;10.40;99.90
9951;DHT22;24074;49.254;6.702;2024-01-25T13:00:34;10.40;99.90
9951;DHT22;24074;49.254;6.702;2024-01-25T13:03:00;10.40;99.90
9951;DHT22;24074;49.254;6.702;2024-01-25T13:05:29;10.50;99.90
9951;DHT22;24074;49.254;6.702;2024-01-25T13:07:55;10.40;99.90
9951;DHT22;24074;49.254;6.702;2024-01-25T13:10:21;10.30;99.90
9951;DHT22;24074;49.254;6.702;2024-01-25T13:12:47;10.40;99.90
9951;DHT22;24074;49.254;6.702;2024-01-25T13:15:12;10.40;99.90
9951;DHT22;24074;49.254;6.702;2024-01-25T13:17:41;10.30;99.90
9951;DHT22;24074;49.254;6.702;2024-01-25T13:20:07;10.30;99.90
9951;DHT22;24074;49.254;6.702;2024-01-25T13:22:33;10.40;99.90
9951;DHT22;24074;49.254;6.702;2024-01-25T13:25:02;10.40;99.90
9951;DHT22;24074;49.254;6.702;2024-01-25T13:27:28;10.40;99.90
9951;DHT22;24074;49.254;6.702;2024-01-25T13:29:54;10.30;99.90
9951;DHT22;24074;49.254;6.702;2024-01-25T13:32:21;10.30;99.90
9951;DHT22;24074;49.254;6.702;2024-01-25T13:34:47;10.20;99.90
9951;DHT22;24074;49.254;6.702;2024-01-25T13:37:16;10.10;99.90
9951;DHT22;24074;49.254;6.702;2024-01-25T13:39:42;10.10;99.90
9951;DHT22;24074;49.254;6.702;2024-01-25T13:42:07;10.10;99.90
9951;DHT22;24074;49.254;6.702;2024-01-25T13:44:33;10.10;99.90
9951;DHT22;24074;49.254;6.702;2024-01-25T13:46:58;10.10;99.90
9951;DHT22;24074;49.254;6.702;2024-01-25T13:49:24;10.20;99.90
9951;DHT22;24074;49.254;6.702;2024-01-25T13:51:50;10.20;99.90
9951;DHT22;24074;49.254;6.702;2024-01-25T13:54:15;10.20;99.90
9951;DHT22;24074;49.254;6.702;2024-01-25T13:56:44;10.20;99.90
9951;DHT22;24074;49.254;6.702;2024-01-25T13:59:09;10.10;99.90
9951;DHT22;24074;49.254;6.702;2024-01-25T14:01:35;10.20;99.90
9951;DHT22;24074;49.254;6.702;2024-01-25T14:04:02;10.30;99.90
9951;DHT22;24074;49.254;6.702;2024-01-25T14:06:28;10.40;99.90
9951;DHT22;24074;49.254;6.702;2024-01-25T14:08:53;10.40;99.90
9951;DHT22;24074;49.254;6.702;2024-01-25T14:11:19;10.40;99.90
9951;DHT22;24074;49.254;6.702;2024-01-25T14:13:45;10.40;99.90
9951;DHT22;24074;49.254;6.702;2024-01-25T14:16:10;10.40;99.90
9951;DHT22;24074;49.254;6.702;2024-01-25T14:18:42;10.30;99.90
9951;DHT22;24074;49.254;6.702;2024-01-25T14:21:08;10.30;99.90
9951;DHT22;24074;49.254;6.702;2024-01-25T14:23:33;10.30;99.90
9951;DHT22;24074;49.254;6.702;2024-01-25T14:25:59;10.20;99.90
9951;DHT22;24074;49.254;6.702;2024-01-25T14:28:24;10.20;99.90
9951;DHT22;24074;49.254;6.702;2024-01-25T14:30:50;10.20;99.90
9951;DHT22;24074;49.254;6.702;2024-01-25T14:33:15;10.10;99.90
9951;DHT22;24074;49.254;6.702;2024-01-25T14:35:41;10.10;99.90
9951;DHT22;24074;49.254;6.702;2024-01-25T14:38:07;10.00;99.90
9951;DHT22;24074;49.254;6.702;2024-01-25T14:40:32;10.00;99.90
9951;DHT22;24074;49.254;6.702;2024-01-25T14:42:58;10.00;99.90
9951;DHT22;24074;49.254;6.702;2024-01-25T14:45:24;10.00;99.90
9951;DHT22;24074;49.254;6.702;2024-01-25T14:47:50;10.00;99.90
9951;DHT22;24074;49.254;6.702;2024-01-25T14:50:16;10.00;99.90
9951;DHT22;24074;49.254;6.702;2024-01-25T14:52:42;10.00;99.90
9951;DHT22;24074;49.254;6.702;2024-01-25T14:55:10;10.00;99.90
9951;DHT22;24074;49.254;6.702;2024-01-25T14:57:36;10.00;99.90
9951;DHT22;24074;49.254;6.702;2024-01-25T15:00:01;10.00;99.90
9951;DHT22;24074;49.254;6.702;2024-01-25T15:02:27;9.90;99.90
9951;DHT22;24074;49.254;6.702;2024-01-25T15:04:53;9.90;99.90
9951;DHT22;24074;49.254;6.702;2024-01-25T15:07:18;9.90;99.90
9951;DHT22;24074;49.254;6.702;2024-01-25T15:09:47;9.80;99.90
9951;DHT22;24074;49.254;6.702;2024-01-25T15:12:13;9.80;99.90
9951;DHT22;24074;49.254;6.702;2024-01-25T15:14:39;9.80;99.90
9951;DHT22;24074;49.254;6.702;2024-01-25T15:17:04;9.90;99.90
9951;DHT22;24074;49.254;6.702;2024-01-25T15:19:30;9.90;99.90
9951;DHT22;24074;49.254;6.702;2024-01-25T15:21:58;9.80;99.90
9951;DHT22;24074;49.254;6.702;2024-01-25T15:24:23;9.80;99.90
9951;DHT22;24074;49.254;6.702;2024-01-25T15:26:49;9.80;99.90
9951;DHT22;24074;49.254;6.702;2024-01-25T15:29:14;9.80;99.90
9951;DHT22;24074;49.254;6.702;2024-01-25T15:31:40;9.90;99.90
9951;DHT22;24074;49.254;6.702;2024-01-25T15:34:06;9.80;99.90
9951;DHT22;24074;49.254;6.702;2024-01-25T15:36:32;9.80;99.90
9951;DHT22;24074;49.254;6.702;2024-01-25T15:38:57;9.70;99.90
9951;DHT22;24074;49.254;6.702;2024-01-25T15:41:23;9.70;99.90
9951;DHT22;24074;49.254;6.702;2024-01-25T15:43:48;9.70;99.90
9951;DHT22;24074;49.254;6.702;2024-01-25T15:46:15;9.70;99.90
9951;DHT22;24074;49.254;6.702;2024-01-25T15:48:41;9.60;99.90